createdAt,value
2019-01-23T00:03:58.131Z,29.13
2019-01-23T00:06:41.019Z,28.97
2019-01-23T00:12:40.059Z,27.97
2019-01-23T00:15:30.767Z,29.13
2019-01-23T00:18:19.185Z,29.83
2019-01-23T00:21:02.669Z,30.17
2019-01-23T00:23:52.521Z,28.03
2019-01-23T00:26:42.404Z,29.83
2019-01-23T00:29:32.245Z,29.57
2019-01-23T00:32:22.167Z,28.93
2019-01-23T00:35:04.515Z,29.17
2019-01-23T00:37:54.329Z,28.57
2019-01-23T00:40:44.193Z,29.23
2019-01-23T00:43:34.018Z,28.23
2019-01-23T00:46:23.751Z,28.17
2019-01-23T00:49:06.109Z,30.13
2019-01-23T00:51:55.933Z,30.03
2019-01-23T00:54:45.714Z,29.23
2019-01-23T00:57:35.505Z,30.33
2019-01-23T01:00:26.209Z,28.80
2019-01-23T01:03:15.986Z,29.67
2019-01-23T01:06:06.085Z,28.97
2019-01-23T01:09:15.080Z,29.40
2019-01-23T01:12:04.910Z,31.17
2019-01-23T01:15:13.837Z,29.40
2019-01-23T01:17:56.202Z,30.97
2019-01-23T01:20:46.044Z,30.83
2019-01-23T01:23:36.767Z,29.10
2019-01-23T01:26:26.551Z,28.30
2019-01-23T01:29:16.277Z,30.27
2019-01-23T01:32:06.069Z,29.73
2019-01-23T01:34:55.847Z,29.63
2019-01-23T01:37:38.010Z,29.40
2019-01-23T01:40:27.767Z,29.03
2019-01-23T01:43:10.324Z,28.97
2019-01-23T01:46:00.064Z,29.20
2019-01-23T01:48:42.491Z,29.87
2019-01-23T01:51:32.236Z,30.23
2019-01-23T01:54:15.058Z,30.33
2019-01-23T01:57:04.800Z,29.20
2019-01-23T01:59:54.538Z,30.20
2019-01-23T02:02:37.199Z,30.23
2019-01-23T02:10:48.140Z,29.90
2019-01-23T02:13:37.952Z,29.40
2019-01-23T02:16:27.770Z,29.97
2019-01-23T02:19:17.570Z,29.20
2019-01-23T02:22:07.362Z,31.47
2019-01-23T02:24:57.179Z,30.23
2019-01-23T02:30:43.911Z,29.90
2019-01-23T02:33:33.624Z,31.27
2019-01-23T02:36:15.820Z,30.40
2019-01-23T02:42:23.738Z,30.40
2019-01-23T02:45:13.766Z,31.60
2019-01-23T02:48:03.592Z,31.30
2019-01-23T02:50:34.270Z,30.17
2019-01-23T02:53:24.294Z,30.47
2019-01-23T02:56:07.700Z,30.50
2019-01-23T02:58:57.506Z,29.20
2019-01-23T03:02:06.521Z,28.70
2019-01-23T03:04:49.051Z,28.53
2019-01-23T03:07:38.882Z,29.77
2019-01-23T03:10:28.668Z,30.03
2019-01-23T03:13:10.758Z,29.00
2019-01-23T03:16:00.592Z,29.43
2019-01-23T03:18:50.398Z,30.47
2019-01-23T03:21:40.141Z,30.13
2019-01-23T03:24:29.887Z,28.87
2019-01-23T03:27:19.655Z,28.17
2019-01-23T03:30:03.505Z,31.30
2019-01-23T03:32:53.275Z,29.43
2019-01-23T03:35:36.356Z,28.50
2019-01-23T03:38:26.096Z,28.27
2019-01-23T03:41:15.864Z,28.73
2019-01-23T03:43:58.328Z,29.00
2019-01-23T03:46:48.132Z,29.47
2019-01-23T03:49:37.932Z,28.30
2019-01-23T03:52:27.750Z,28.30
2019-01-23T03:55:17.976Z,29.93
2019-01-23T03:58:07.751Z,28.90
2019-01-23T04:03:51.194Z,28.10
2019-01-23T04:06:41.032Z,28.53
2019-01-23T04:09:30.795Z,28.63
2019-01-23T04:12:21.180Z,27.40
2019-01-23T04:20:32.988Z,28.93
2019-01-23T04:23:22.712Z,30.70
2019-01-23T04:26:05.152Z,29.87
2019-01-23T04:28:54.959Z,29.17
2019-01-23T04:31:44.777Z,27.87
2019-01-23T04:34:34.638Z,28.33
2019-01-23T04:37:24.456Z,29.17
2019-01-23T04:40:14.358Z,28.47
2019-01-23T04:43:04.168Z,29.70
2019-01-23T04:45:53.923Z,29.67
2019-01-23T04:48:36.053Z,30.13
2019-01-23T04:54:20.097Z,31.30
2019-01-23T04:57:09.915Z,33.47
2019-01-23T04:59:59.729Z,31.77
2019-01-23T05:02:43.013Z,31.43
2019-01-23T05:05:32.793Z,31.50
2019-01-23T05:08:15.466Z,29.93
2019-01-23T05:11:05.243Z,31.07
2019-01-23T05:14:14.103Z,30.27
2019-01-23T05:16:56.385Z,31.10
2019-01-23T05:19:46.161Z,34.13
2019-01-23T05:22:36.273Z,32.10
2019-01-23T05:25:26.027Z,31.60
2019-01-23T05:28:15.771Z,29.33
2019-01-23T05:31:05.553Z,34.27
2019-01-23T05:33:47.841Z,32.63
2019-01-23T05:36:37.574Z,32.63
2019-01-23T05:39:20.088Z,32.73
2019-01-23T05:42:09.895Z,31.70
2019-01-23T05:44:52.291Z,31.13
2019-01-23T05:47:42.032Z,32.53
2019-01-23T05:50:24.413Z,31.57
2019-01-23T05:53:06.491Z,32.70
2019-01-23T05:59:00.145Z,30.77
2019-01-23T06:01:42.536Z,31.40
2019-01-23T06:04:32.360Z,30.80
2019-01-23T06:07:22.136Z,30.00
2019-01-23T06:10:31.104Z,31.30
2019-01-23T06:13:20.870Z,29.83
2019-01-23T06:16:10.686Z,29.77
2019-01-23T06:19:00.480Z,31.27
2019-01-23T06:21:50.294Z,30.87
2019-01-23T06:24:40.063Z,31.27
2019-01-23T06:27:29.847Z,31.07
2019-01-23T06:33:27.910Z,31.03
2019-01-23T06:36:17.654Z,30.60
2019-01-23T06:39:00.068Z,27.37
2019-01-23T06:41:49.852Z,29.67
2019-01-23T06:44:32.124Z,28.47
2019-01-23T06:47:21.862Z,30.50
2019-01-23T06:50:04.832Z,31.37
2019-01-23T06:52:54.546Z,29.67
2019-01-23T06:55:37.196Z,31.03
2019-01-23T06:58:26.958Z,30.83
2019-01-23T07:01:09.646Z,29.73
2019-01-23T07:03:59.402Z,30.60
2019-01-23T07:06:41.383Z,29.57
2019-01-23T07:09:31.192Z,26.77
2019-01-23T07:12:13.159Z,29.33
2019-01-23T07:15:02.929Z,28.77
2019-01-23T07:17:52.714Z,29.70
2019-01-23T07:20:42.522Z,31.53
2019-01-23T07:23:25.105Z,31.07
2019-01-23T07:29:08.610Z,33.07
2019-01-23T07:31:58.420Z,30.73
2019-01-23T07:37:51.886Z,32.90
2019-01-23T07:40:33.976Z,34.90
2019-01-23T07:43:23.751Z,33.10
2019-01-23T07:46:13.686Z,32.03
2019-01-23T07:49:03.584Z,33.03
2019-01-23T07:51:53.384Z,32.60
2019-01-23T07:54:43.134Z,32.27
2019-01-23T07:57:32.955Z,33.87
2019-01-23T08:00:23.806Z,33.67
2019-01-23T08:03:13.676Z,22.97
2019-01-23T08:09:09.097Z,18.13
2019-01-23T08:11:51.500Z,19.23
2019-01-23T08:14:42.217Z,18.10
2019-01-23T08:17:25.306Z,21.37
2019-01-23T08:20:17.293Z,19.93
2019-01-23T08:23:07.065Z,18.73
2019-01-23T08:26:15.864Z,22.10
2019-01-23T08:28:58.737Z,22.77
2019-01-23T08:31:48.543Z,24.83
2019-01-23T08:34:38.382Z,22.83
2019-01-23T08:37:28.199Z,26.80
2019-01-23T08:40:17.999Z,26.20
2019-01-23T08:43:07.780Z,27.80
2019-01-23T08:45:57.603Z,31.70
2019-01-23T08:48:47.433Z,27.07
2019-01-23T08:51:37.365Z,31.37
2019-01-23T08:54:27.157Z,32.33
2019-01-23T08:57:16.989Z,28.43
2019-01-23T09:03:23.054Z,31.47
2019-01-23T09:06:12.829Z,30.73
2019-01-23T09:09:15.288Z,34.23
2019-01-23T09:11:57.589Z,31.50
2019-01-23T09:14:47.295Z,30.47
2019-01-23T09:17:29.315Z,29.27
2019-01-23T09:20:19.391Z,31.80
2019-01-23T09:23:01.912Z,28.20
2019-01-23T09:26:12.183Z,29.37
2019-01-23T09:28:54.813Z,31.33
2019-01-23T09:32:22.727Z,27.07
2019-01-23T09:35:14.669Z,31.30
2019-01-23T09:38:42.615Z,30.53
2019-01-23T09:42:05.729Z,28.37
2019-01-23T09:45:33.647Z,31.40
2019-01-23T09:49:01.615Z,26.60
2019-01-23T09:52:29.524Z,29.13
2019-01-23T09:55:19.617Z,29.53
2019-01-23T09:58:11.079Z,29.20
2019-01-23T10:01:00.905Z,28.73
2019-01-23T10:03:50.716Z,25.53
2019-01-23T10:06:40.547Z,27.77
2019-01-23T10:09:30.357Z,29.43
2019-01-23T10:12:20.147Z,29.70
2019-01-23T10:15:13.927Z,29.73
2019-01-23T10:17:56.162Z,29.33
2019-01-23T10:20:45.987Z,29.83
2019-01-23T10:23:35.749Z,24.90
2019-01-23T10:26:25.530Z,28.40
2019-01-23T10:29:15.615Z,29.37
2019-01-23T10:32:05.423Z,26.53
2019-01-23T10:34:55.199Z,21.93
2019-01-23T10:37:45.062Z,27.30
2019-01-23T10:40:35.051Z,27.77
2019-01-23T10:43:24.985Z,27.73
2019-01-23T10:46:14.783Z,26.00
2019-01-23T10:49:06.152Z,28.40
2019-01-23T10:51:49.323Z,26.33
2019-01-23T10:54:39.283Z,30.13
2019-01-23T10:57:29.066Z,30.17
2019-01-23T11:00:19.320Z,26.93
2019-01-23T11:03:10.081Z,25.87
2019-01-23T11:05:54.341Z,29.10
2019-01-23T11:08:38.264Z,27.37
2019-01-23T11:11:21.146Z,23.13
2019-01-23T11:14:10.957Z,26.10
2019-01-23T11:17:00.767Z,27.00
2019-01-23T11:19:50.536Z,26.60
2019-01-23T11:22:40.274Z,25.77
2019-01-23T11:25:30.169Z,29.07
2019-01-23T11:28:40.511Z,29.00
2019-01-23T11:31:30.348Z,26.97
2019-01-23T11:34:20.150Z,29.73
2019-01-23T11:37:09.955Z,29.70
2019-01-23T11:40:11.649Z,30.07
2019-01-23T11:42:54.551Z,30.50
2019-01-23T11:45:44.327Z,27.73
2019-01-23T11:48:26.982Z,30.67
2019-01-23T11:51:16.772Z,32.77
2019-01-23T11:54:06.812Z,31.53
2019-01-23T11:56:56.644Z,30.83
2019-01-23T11:59:46.460Z,31.67
2019-01-23T12:02:36.261Z,30.37
2019-01-23T12:05:26.028Z,32.43
2019-01-23T12:08:15.864Z,29.90
2019-01-23T12:11:05.748Z,28.20
2019-01-23T12:13:55.489Z,29.17
2019-01-23T12:16:45.306Z,27.37
2019-01-23T12:19:35.138Z,30.90
2019-01-23T12:22:25.033Z,30.40
2019-01-23T12:25:35.426Z,30.43
2019-01-23T12:28:25.220Z,28.87
2019-01-23T12:30:55.876Z,27.60
2019-01-23T12:33:45.626Z,28.50
2019-01-23T12:36:29.797Z,30.53
2019-01-23T12:39:19.517Z,29.60
2019-01-23T12:42:28.066Z,29.63
2019-01-23T12:45:20.322Z,26.93
2019-01-23T12:48:02.618Z,29.87
2019-01-23T12:53:49.740Z,29.27
2019-01-23T12:56:39.869Z,29.70
2019-01-23T12:59:29.643Z,29.40
2019-01-23T13:02:19.418Z,29.33
2019-01-23T13:05:10.524Z,30.13
2019-01-23T13:08:00.246Z,27.30
2019-01-23T13:10:45.964Z,30.20
2019-01-23T13:13:35.767Z,31.03
2019-01-23T13:16:17.723Z,31.13
2019-01-23T13:19:07.475Z,29.47
2019-01-23T13:21:49.993Z,29.87
2019-01-23T13:24:39.762Z,29.97
2019-01-23T13:27:29.496Z,30.80
2019-01-23T13:30:14.511Z,30.67
2019-01-23T13:32:57.194Z,30.10
2019-01-23T13:35:46.992Z,30.73
2019-01-23T13:38:36.783Z,31.97
2019-01-23T13:41:26.537Z,30.47
2019-01-23T13:44:16.288Z,31.20
2019-01-23T13:47:06.041Z,30.97
2019-01-23T13:49:48.597Z,25.17
2019-01-23T13:52:38.378Z,31.57
2019-01-23T13:55:21.083Z,31.37
2019-01-23T13:58:10.850Z,31.20
2019-01-23T14:00:53.193Z,29.13
2019-01-23T14:03:42.939Z,30.50
2019-01-23T14:06:25.669Z,29.63
2019-01-23T14:09:15.426Z,31.53
2019-01-23T14:11:57.868Z,30.57
2019-01-23T14:14:47.582Z,32.53
2019-01-23T14:17:37.312Z,31.47
2019-01-23T14:20:33.957Z,31.00
2019-01-23T14:23:23.789Z,33.07
2019-01-23T14:26:06.715Z,33.30
2019-01-23T14:28:56.567Z,30.67
2019-01-23T14:31:46.362Z,29.93
2019-01-23T14:34:36.207Z,32.03
2019-01-23T14:37:26.013Z,31.13
2019-01-23T14:40:35.021Z,31.07
2019-01-23T14:43:24.807Z,29.17
2019-01-23T14:46:33.721Z,29.70
2019-01-23T14:49:23.741Z,31.43
2019-01-23T14:52:07.998Z,30.43
2019-01-23T14:54:57.871Z,28.53
2019-01-23T14:57:47.956Z,31.63
2019-01-23T15:00:37.747Z,30.97
2019-01-23T15:03:27.602Z,31.30
2019-01-23T15:09:02.007Z,31.63
2019-01-23T15:11:51.749Z,31.47
2019-01-23T15:14:34.083Z,31.60
2019-01-23T15:17:23.803Z,30.97
2019-01-23T15:20:07.140Z,32.93
2019-01-23T15:22:56.902Z,32.20
2019-01-23T15:25:39.384Z,30.03
2019-01-23T15:28:48.200Z,31.50
2019-01-23T15:31:30.217Z,30.03
2019-01-23T15:34:19.972Z,31.80
2019-01-23T15:37:04.344Z,28.60
2019-01-23T15:39:54.080Z,33.77
2019-01-23T15:42:36.598Z,26.83
2019-01-23T15:45:26.437Z,28.77
2019-01-23T15:48:09.336Z,32.10
2019-01-23T15:50:59.124Z,29.53
2019-01-23T15:53:41.360Z,32.20
2019-01-23T15:56:31.102Z,32.87
2019-01-23T15:59:13.722Z,31.47
2019-01-23T16:02:03.500Z,33.30
2019-01-23T16:04:46.330Z,32.50
2019-01-23T16:07:36.088Z,32.43
2019-01-23T16:10:20.481Z,29.67
2019-01-23T16:13:10.307Z,30.37
2019-01-23T16:15:53.200Z,28.47
2019-01-23T16:18:42.999Z,29.77
2019-01-23T16:21:26.025Z,34.20
2019-01-23T16:24:15.834Z,30.03
2019-01-23T16:27:05.775Z,34.50
2019-01-23T16:29:55.633Z,31.60
2019-01-23T16:32:45.714Z,33.53
2019-01-23T16:35:38.812Z,31.67
2019-01-23T16:38:20.279Z,31.13
2019-01-23T16:41:32.053Z,32.20
2019-01-23T16:44:15.078Z,28.57
2019-01-23T16:47:04.852Z,30.27
2019-01-23T16:49:46.892Z,30.57
2019-01-23T16:52:36.657Z,30.00
2019-01-23T16:55:18.995Z,29.47
2019-01-23T17:01:25.339Z,28.63
2019-01-23T17:04:15.136Z,29.83
2019-01-23T17:07:16.793Z,29.60
2019-01-23T17:09:58.998Z,31.37
2019-01-23T17:12:48.732Z,29.17
2019-01-23T17:15:38.461Z,29.40
2019-01-23T17:18:20.984Z,28.87
2019-01-23T17:21:10.784Z,30.13
2019-01-23T17:24:00.632Z,29.37
2019-01-23T17:26:50.471Z,28.83
2019-01-23T17:29:40.316Z,30.07
2019-01-23T17:32:22.878Z,30.10
2019-01-23T17:35:14.029Z,31.63
2019-01-23T17:38:03.880Z,30.63
2019-01-23T17:40:53.725Z,31.20
2019-01-23T17:46:54.038Z,29.77
2019-01-23T17:49:36.511Z,30.90
2019-01-23T17:52:18.903Z,27.33
2019-01-23T17:55:12.041Z,24.97
2019-01-23T17:57:54.913Z,27.53
2019-01-23T18:01:03.557Z,27.83
2019-01-23T18:03:54.011Z,27.13
2019-01-23T18:06:43.829Z,26.73
2019-01-23T18:09:33.622Z,28.17
2019-01-23T18:12:23.371Z,24.53
2019-01-23T18:15:06.791Z,24.13
2019-01-23T18:17:56.722Z,24.67
2019-01-23T18:20:46.567Z,24.13
2019-01-23T18:23:36.434Z,25.30
2019-01-23T18:26:39.265Z,24.67
2019-01-23T18:29:21.629Z,24.43
2019-01-23T18:32:11.750Z,19.33
2019-01-23T18:35:19.671Z,25.83
2019-01-23T18:38:33.252Z,24.57
2019-01-23T18:41:34.258Z,24.87
2019-01-23T18:44:37.505Z,21.30
2019-01-23T18:47:38.925Z,23.30
2019-01-23T18:54:03.041Z,25.07
2019-01-23T18:56:52.947Z,23.37
2019-01-23T18:59:42.859Z,23.63
2019-01-23T19:02:32.633Z,22.47
2019-01-23T19:05:22.621Z,24.27
2019-01-23T19:08:13.619Z,23.77
2019-01-23T19:11:03.555Z,27.07
2019-01-23T19:13:53.375Z,27.33
2019-01-23T19:16:43.164Z,25.33
2019-01-23T19:19:32.936Z,22.47
2019-01-23T19:22:22.781Z,19.37
2019-01-23T19:25:08.410Z,22.10
2019-01-23T19:27:50.707Z,17.80
2019-01-23T19:33:27.382Z,22.73
2019-01-23T19:36:17.210Z,20.17
2019-01-23T19:39:08.551Z,22.00
2019-01-23T19:41:58.445Z,23.17
2019-01-23T19:44:48.271Z,20.67
2019-01-23T19:47:38.267Z,21.57
2019-01-23T19:50:28.048Z,21.63
2019-01-23T19:53:17.860Z,21.57
2019-01-23T19:56:07.680Z,20.87
2019-01-23T19:58:57.483Z,22.87
2019-01-23T20:01:47.307Z,21.80
2019-01-23T20:04:56.222Z,23.03
2019-01-23T20:07:38.693Z,22.90
2019-01-23T20:10:29.068Z,22.77
2019-01-23T20:13:11.504Z,22.50
2019-01-23T20:16:01.320Z,25.37
2019-01-23T20:18:44.021Z,23.27
2019-01-23T20:21:34.088Z,22.10
2019-01-23T20:24:16.244Z,24.00
2019-01-23T20:27:06.056Z,25.57
2019-01-23T20:29:48.546Z,24.17
2019-01-23T20:35:33.814Z,27.57
2019-01-23T20:38:23.604Z,26.20
2019-01-23T20:41:13.412Z,27.10
2019-01-23T20:44:03.222Z,27.17
2019-01-23T20:46:52.977Z,28.63
2019-01-23T20:49:35.092Z,28.37
2019-01-23T20:52:25.004Z,28.03
2019-01-23T20:58:03.433Z,28.87
2019-01-23T21:00:53.178Z,29.43
2019-01-23T21:03:35.808Z,30.00
2019-01-23T21:06:25.612Z,31.93
2019-01-23T21:09:08.823Z,31.57
2019-01-23T21:11:58.635Z,29.83
2019-01-23T21:14:40.797Z,29.57
2019-01-23T21:17:30.621Z,31.20
2019-01-23T21:20:13.107Z,30.83
2019-01-23T21:23:02.874Z,29.87
2019-01-23T21:25:45.534Z,29.33
2019-01-23T21:28:35.380Z,32.40
2019-01-23T21:31:17.764Z,29.87
2019-01-23T21:34:07.615Z,32.67
2019-01-23T21:36:50.829Z,29.60
2019-01-23T21:45:17.310Z,30.73
2019-01-23T21:48:07.618Z,32.57
2019-01-23T22:00:16.362Z,30.03
2019-01-23T22:03:07.421Z,33.63
2019-01-23T22:05:49.984Z,34.10
2019-01-23T22:08:39.938Z,33.03
2019-01-23T22:11:45.056Z,33.33
2019-01-23T22:14:27.865Z,31.27
2019-01-23T22:17:17.683Z,30.83
2019-01-23T22:20:04.610Z,33.30
2019-01-23T22:22:54.594Z,31.93
2019-01-23T22:25:37.270Z,33.50
2019-01-23T22:28:28.158Z,33.30
2019-01-23T22:31:10.406Z,34.10
2019-01-23T22:34:00.213Z,33.07
2019-01-23T22:37:09.109Z,32.90
2019-01-23T22:39:53.241Z,32.90
2019-01-23T22:42:36.372Z,34.60
2019-01-23T22:45:26.203Z,31.33
2019-01-23T22:48:16.185Z,32.93
2019-01-23T22:51:06.247Z,31.87
2019-01-23T22:53:56.449Z,32.93
2019-01-23T22:56:46.595Z,34.97
2019-01-23T22:59:36.445Z,34.43
2019-01-23T23:02:26.465Z,32.10
2019-01-23T23:05:17.025Z,34.97
2019-01-23T23:11:48.977Z,31.77
2019-01-23T23:14:31.937Z,33.87
2019-01-23T23:17:21.801Z,33.80
2019-01-23T23:20:06.049Z,35.30
2019-01-23T23:22:55.910Z,34.37
2019-01-23T23:25:46.014Z,33.70
2019-01-23T23:28:37.519Z,33.60
2019-01-23T23:31:26.921Z,32.60
2019-01-23T23:34:11.175Z,32.40
2019-01-23T23:37:01.046Z,34.20
2019-01-23T23:42:55.017Z,36.10
2019-01-23T23:45:44.847Z,31.70
2019-01-23T23:51:34.157Z,34.17
2019-01-23T23:54:05.035Z,33.93
2019-01-23T23:56:54.779Z,33.57
2019-01-23T23:59:41.274Z,32.67
